Detall de PIREP

Printer-friendly versionPDF version

[2008/10/18 13:56:00]
Flight IATA:CT3232
Pilot Number:016
Company ICAO:CAT
Aircraft Type:B752/E
PAX:150
Departing Airport: LEPA
Destination Airport: LEMD
Alternate Airport:LEMG
Online: VATSIM
Route:TURIA UN733 PRADO
Flight Level:FL310
No Slew and time accel
No pause
Crash detect
Detect pilot in Cockpit between each 30 and 45 minutes
13:56 Zero fuel Weight: 177412 Lbs, Fuel Weight: 19407 Lbs
13:56 VATSIM:LEPA 181230Z 21010KT 170V240 7000 FEW014 SCT028 24/17 Q1016 NOSIG
13:56 VATSIM:LEMD 181230Z 00000KT 9999 FEW015 BKN140 16/11 Q1017 NOSIG
13:57 Parking Brakes off
14:02 Take-off
14:02 Take off Weight: 195924 Lbs
14:02 Wind: 206º @ 011 Knots Heading: 236º
14:02 POS N39º 33´ 17´´ E002º 43´ 37´´
14:02 Gear Up: 189 Knots
14:02 Flaps:2 at 190 Knots
14:04 Flaps:1 at 209 Knots
14:04 Flaps:0 at 228 Knots
14:17 Wind:263º@010 Knots Heading: 270º Ground Speed: 464 Knots Alti
tude 30072 ft
14:20 TOC
14:20 Fuel Weight: 13950 Lb
14:32 Wind:014º@006 Knots Heading: 299º Ground Speed: 462 Knots Altitude 31020 ft
14:32 TOD
14:32 Fuel Weight: 12302 Lb
14:39 Flaps:1 at 224 Knots
14:39 Flaps:2 at 221 Knots
14:39 Flaps:1 at 221 Knots
14:39 Flaps:2 at 221 Knots
14:47 Wind:155º@001 Knots Heading: 297º Ground Speed: 236 Knots Altitude 5649 ft
14:48 Flaps:3 at 192 Knots
14:48 Flaps:4 at 174 Knots
14:48 Gear Down: 171 Knots
14:49 Flaps:5 at 169 Knots
14:50 Flaps:6 at 141 Knots
14:52 TouchDown:Rate -241 ft/min Speed: 134 Knots
14:52 VATSIM:LEMD 181330Z 15003KT 060V210 9999 FEW015 BKN140 16/11 Q1016 NOSIG
14:52 Land
14:52 Wind:160º@002 Knots
14:52 Heading: 322º
14:52 Flight Duration: 00:50
14:52 Landing Weight: 188034 Lbs
14:52 POS N40º 28´ 16´´ W003º 33´ 44´´
14:54 Parking brakes on
14:54 Block to Block Duration: 00:57
14:54 Final Fuel
: 10443 Lbls
14:54 Spent Fuel: 8963 Lbls
14:54 Flight Length: 299 NM
14:54 TOD Land Length: 89 NM

Exportar CSV

Powered by Drupal - Modified by Danger4k